sensor_id;sensor_type;location;lat;lon;timestamp;P1;durP1;ratioP1;P2;durP2;ratioP2
74648;SDS011;63168;49.280;7.214;2023-02-01T00:01:11;4.30;;;1.37;;
74648;SDS011;63168;49.280;7.214;2023-02-01T00:03:38;3.30;;;1.20;;
74648;SDS011;63168;49.280;7.214;2023-02-01T00:06:03;2.85;;;1.27;;
74648;SDS011;63168;49.280;7.214;2023-02-01T00:08:29;2.67;;;1.20;;
74648;SDS011;63168;49.280;7.214;2023-02-01T00:10:58;3.03;;;1.20;;
74648;SDS011;63168;49.280;7.214;2023-02-01T00:13:24;2.80;;;1.20;;
74648;SDS011;63168;49.280;7.214;2023-02-01T00:15:50;3.00;;;1.33;;
74648;SDS011;63168;49.280;7.214;2023-02-01T00:18:15;2.67;;;1.20;;
74648;SDS011;63168;49.280;7.214;2023-02-01T00:20:46;2.33;;;1.20;;
74648;SDS011;63168;49.280;7.214;2023-02-01T00:23:11;2.97;;;1.40;;
74648;SDS011;63168;49.280;7.214;2023-02-01T00:25:37;3.33;;;1.20;;
74648;SDS011;63168;49.280;7.214;2023-02-01T00:28:02;2.90;;;1.20;;
74648;SDS011;63168;49.280;7.214;2023-02-01T00:30:28;3.03;;;1.20;;
74648;SDS011;63168;49.280;7.214;2023-02-01T00:32:53;2.30;;;1.20;;
74648;SDS011;63168;49.280;7.214;2023-02-01T00:35:18;2.38;;;1.10;;
74648;SDS011;63168;49.280;7.214;2023-02-01T00:37:45;4.10;;;1.30;;
74648;SDS011;63168;49.280;7.214;2023-02-01T00:40:11;2.95;;;1.10;;
74648;SDS011;63168;49.280;7.214;2023-02-01T00:42:37;3.00;;;1.20;;
74648;SDS011;63168;49.280;7.214;2023-02-01T00:45:03;2.85;;;1.30;;
74648;SDS011;63168;49.280;7.214;2023-02-01T00:47:29;2.97;;;1.08;;
74648;SDS011;63168;49.280;7.214;2023-02-01T00:49:55;2.28;;;1.10;;
74648;SDS011;63168;49.280;7.214;2023-02-01T00:52:20;3.10;;;1.20;;
74648;SDS011;63168;49.280;7.214;2023-02-01T00:54:47;3.07;;;1.47;;
74648;SDS011;63168;49.280;7.214;2023-02-01T00:57:12;2.17;;;1.10;;
74648;SDS011;63168;49.280;7.214;2023-02-01T00:59:38;2.43;;;1.00;;
74648;SDS011;63168;49.280;7.214;2023-02-01T01:02:03;2.90;;;1.05;;
74648;SDS011;63168;49.280;7.214;2023-02-01T01:04:29;3.30;;;1.10;;
74648;SDS011;63168;49.280;7.214;2023-02-01T01:06:54;2.60;;;1.00;;
74648;SDS011;63168;49.280;7.214;2023-02-01T01:09:19;2.83;;;1.27;;
74648;SDS011;63168;49.280;7.214;2023-02-01T01:11:46;3.27;;;1.20;;
74648;SDS011;63168;49.280;7.214;2023-02-01T01:14:12;2.95;;;1.40;;
74648;SDS011;63168;49.280;7.214;2023-02-01T01:16:37;2.07;;;1.10;;
74648;SDS011;63168;49.280;7.214;2023-02-01T01:19:02;2.17;;;1.00;;
74648;SDS011;63168;49.280;7.214;2023-02-01T01:21:28;2.72;;;1.30;;
74648;SDS011;63168;49.280;7.214;2023-02-01T01:23:54;2.40;;;1.10;;
74648;SDS011;63168;49.280;7.214;2023-02-01T01:26:20;2.25;;;0.90;;
74648;SDS011;63168;49.280;7.214;2023-02-01T01:28:49;2.30;;;1.00;;
74648;SDS011;63168;49.280;7.214;2023-02-01T01:31:15;3.33;;;1.30;;
74648;SDS011;63168;49.280;7.214;2023-02-01T01:33:42;2.35;;;1.10;;
74648;SDS011;63168;49.280;7.214;2023-02-01T01:36:08;3.15;;;1.20;;
74648;SDS011;63168;49.280;7.214;2023-02-01T01:38:36;1.90;;;0.90;;
74648;SDS011;63168;49.280;7.214;2023-02-01T01:41:02;3.05;;;1.35;;
74648;SDS011;63168;49.280;7.214;2023-02-01T01:46:15;1.95;;;1.00;;
74648;SDS011;63168;49.280;7.214;2023-02-01T01:48:41;2.85;;;1.00;;
74648;SDS011;63168;49.280;7.214;2023-02-01T01:51:08;2.20;;;1.13;;
74648;SDS011;63168;49.280;7.214;2023-02-01T01:53:36;2.85;;;1.02;;
74648;SDS011;63168;49.280;7.214;2023-02-01T01:56:07;1.93;;;1.00;;
74648;SDS011;63168;49.280;7.214;2023-02-01T01:58:33;2.17;;;1.00;;
74648;SDS011;63168;49.280;7.214;2023-02-01T02:00:59;2.53;;;1.10;;
74648;SDS011;63168;49.280;7.214;2023-02-01T02:03:27;2.60;;;1.10;;
74648;SDS011;63168;49.280;7.214;2023-02-01T02:05:59;1.70;;;1.00;;
74648;SDS011;63168;49.280;7.214;2023-02-01T02:08:27;1.80;;;1.00;;
74648;SDS011;63168;49.280;7.214;2023-02-01T02:10:53;2.00;;;1.10;;
74648;SDS011;63168;49.280;7.214;2023-02-01T02:13:25;3.25;;;1.30;;
74648;SDS011;63168;49.280;7.214;2023-02-01T02:15:54;1.90;;;0.90;;
74648;SDS011;63168;49.280;7.214;2023-02-01T02:18:34;2.43;;;1.10;;
74648;SDS011;63168;49.280;7.214;2023-02-01T02:21:10;2.87;;;1.30;;
74648;SDS011;63168;49.280;7.214;2023-02-01T02:26:54;2.27;;;1.17;;
74648;SDS011;63168;49.280;7.214;2023-02-01T02:29:48;2.03;;;1.00;;
74648;SDS011;63168;49.280;7.214;2023-02-01T02:32:32;2.05;;;0.93;;
74648;SDS011;63168;49.280;7.214;2023-02-01T02:35:28;2.80;;;1.30;;
74648;SDS011;63168;49.280;7.214;2023-02-01T02:38:02;1.50;;;0.90;;
74648;SDS011;63168;49.280;7.214;2023-02-01T02:40:41;1.77;;;1.00;;
74648;SDS011;63168;49.280;7.214;2023-02-01T02:43:12;2.13;;;1.00;;
74648;SDS011;63168;49.280;7.214;2023-02-01T02:46:04;2.15;;;1.00;;
74648;SDS011;63168;49.280;7.214;2023-02-01T02:48:54;3.28;;;1.20;;
74648;SDS011;63168;49.280;7.214;2023-02-01T02:51:32;2.20;;;0.90;;
74648;SDS011;63168;49.280;7.214;2023-02-01T02:54:22;1.67;;;0.70;;
74648;SDS011;63168;49.280;7.214;2023-02-01T02:57:08;1.67;;;1.00;;
74648;SDS011;63168;49.280;7.214;2023-02-01T02:59:56;2.33;;;1.10;;
74648;SDS011;63168;49.280;7.214;2023-02-01T03:02:44;2.30;;;1.08;;
74648;SDS011;63168;49.280;7.214;2023-02-01T03:05:31;2.42;;;1.10;;
74648;SDS011;63168;49.280;7.214;2023-02-01T03:08:03;2.25;;;1.00;;
74648;SDS011;63168;49.280;7.214;2023-02-01T03:10:32;2.42;;;1.05;;
74648;SDS011;63168;49.280;7.214;2023-02-01T03:13:05;1.92;;;0.90;;
74648;SDS011;63168;49.280;7.214;2023-02-01T03:15:33;2.80;;;1.00;;
74648;SDS011;63168;49.280;7.214;2023-02-01T03:18:04;1.98;;;0.90;;
74648;SDS011;63168;49.280;7.214;2023-02-01T03:20:35;1.65;;;0.90;;
74648;SDS011;63168;49.280;7.214;2023-02-01T03:23:07;2.17;;;1.00;;
74648;SDS011;63168;49.280;7.214;2023-02-01T03:25:32;1.50;;;0.90;;
74648;SDS011;63168;49.280;7.214;2023-02-01T03:28:00;2.42;;;1.00;;
74648;SDS011;63168;49.280;7.214;2023-02-01T03:30:28;2.03;;;0.90;;
74648;SDS011;63168;49.280;7.214;2023-02-01T03:32:56;2.33;;;0.90;;
74648;SDS011;63168;49.280;7.214;2023-02-01T03:35:25;2.40;;;0.88;;
74648;SDS011;63168;49.280;7.214;2023-02-01T03:37:54;1.48;;;0.80;;
74648;SDS011;63168;49.280;7.214;2023-02-01T03:40:27;1.80;;;0.90;;
74648;SDS011;63168;49.280;7.214;2023-02-01T03:42:57;2.87;;;1.00;;
74648;SDS011;63168;49.280;7.214;2023-02-01T03:45:27;1.95;;;0.95;;
74648;SDS011;63168;49.280;7.214;2023-02-01T03:47:57;2.40;;;0.90;;
74648;SDS011;63168;49.280;7.214;2023-02-01T03:50:25;1.90;;;0.90;;
74648;SDS011;63168;49.280;7.214;2023-02-01T03:52:52;1.85;;;0.90;;
74648;SDS011;63168;49.280;7.214;2023-02-01T03:55:22;1.85;;;1.02;;
74648;SDS011;63168;49.280;7.214;2023-02-01T03:57:50;1.88;;;0.95;;
74648;SDS011;63168;49.280;7.214;2023-02-01T04:00:21;2.13;;;0.90;;
74648;SDS011;63168;49.280;7.214;2023-02-01T04:02:47;2.00;;;0.90;;
74648;SDS011;63168;49.280;7.214;2023-02-01T04:05:13;2.10;;;0.80;;
74648;SDS011;63168;49.280;7.214;2023-02-01T04:07:38;1.60;;;0.97;;
74648;SDS011;63168;49.280;7.214;2023-02-01T04:10:04;2.63;;;0.90;;
74648;SDS011;63168;49.280;7.214;2023-02-01T04:12:30;2.03;;;0.98;;
74648;SDS011;63168;49.280;7.214;2023-02-01T04:14:57;2.40;;;1.00;;
74648;SDS011;63168;49.280;7.214;2023-02-01T04:17:23;2.38;;;0.90;;
74648;SDS011;63168;49.280;7.214;2023-02-01T04:19:48;2.03;;;0.93;;
74648;SDS011;63168;49.280;7.214;2023-02-01T04:22:14;3.07;;;0.90;;
74648;SDS011;63168;49.280;7.214;2023-02-01T04:24:39;2.05;;;0.85;;
74648;SDS011;63168;49.280;7.214;2023-02-01T04:27:04;1.60;;;0.90;;
74648;SDS011;63168;49.280;7.214;2023-02-01T04:29:30;1.53;;;0.90;;
74648;SDS011;63168;49.280;7.214;2023-02-01T04:31:56;2.20;;;1.00;;
74648;SDS011;63168;49.280;7.214;2023-02-01T04:34:22;2.00;;;0.80;;
74648;SDS011;63168;49.280;7.214;2023-02-01T04:36:49;2.55;;;0.90;;
74648;SDS011;63168;49.280;7.214;2023-02-01T04:39:15;1.57;;;0.80;;
74648;SDS011;63168;49.280;7.214;2023-02-01T04:41:40;2.37;;;0.80;;
74648;SDS011;63168;49.280;7.214;2023-02-01T04:44:06;1.63;;;0.90;;
74648;SDS011;63168;49.280;7.214;2023-02-01T04:46:31;1.43;;;0.80;;
74648;SDS011;63168;49.280;7.214;2023-02-01T04:48:58;1.97;;;1.10;;
74648;SDS011;63168;49.280;7.214;2023-02-01T04:51:23;1.45;;;0.80;;
74648;SDS011;63168;49.280;7.214;2023-02-01T04:53:49;1.63;;;0.90;;
74648;SDS011;63168;49.280;7.214;2023-02-01T04:56:14;21.10;;;6.00;;
74648;SDS011;63168;49.280;7.214;2023-02-01T04:58:40;18.40;;;5.80;;
74648;SDS011;63168;49.280;7.214;2023-02-01T05:01:05;12.95;;;4.53;;
74648;SDS011;63168;49.280;7.214;2023-02-01T05:03:31;12.80;;;4.10;;
74648;SDS011;63168;49.280;7.214;2023-02-01T05:05:59;13.85;;;4.22;;
74648;SDS011;63168;49.280;7.214;2023-02-01T05:08:25;11.05;;;4.40;;
74648;SDS011;63168;49.280;7.214;2023-02-01T05:10:51;10.03;;;4.07;;
74648;SDS011;63168;49.280;7.214;2023-02-01T05:13:16;11.23;;;3.42;;
74648;SDS011;63168;49.280;7.214;2023-02-01T05:16:01;8.48;;;2.65;;
74648;SDS011;63168;49.280;7.214;2023-02-01T05:18:26;9.33;;;2.60;;
74648;SDS011;63168;49.280;7.214;2023-02-01T05:20:52;11.15;;;2.90;;
74648;SDS011;63168;49.280;7.214;2023-02-01T05:23:18;8.03;;;2.87;;
74648;SDS011;63168;49.280;7.214;2023-02-01T05:25:44;8.65;;;2.72;;
74648;SDS011;63168;49.280;7.214;2023-02-01T05:28:09;9.87;;;3.10;;
74648;SDS011;63168;49.280;7.214;2023-02-01T05:30:35;6.53;;;2.60;;
74648;SDS011;63168;49.280;7.214;2023-02-01T05:33:00;7.68;;;2.83;;
74648;SDS011;63168;49.280;7.214;2023-02-01T05:35:26;8.47;;;3.00;;
74648;SDS011;63168;49.280;7.214;2023-02-01T05:37:51;9.70;;;2.70;;
74648;SDS011;63168;49.280;7.214;2023-02-01T05:40:18;9.83;;;2.90;;
74648;SDS011;63168;49.280;7.214;2023-02-01T05:42:43;7.47;;;2.60;;
74648;SDS011;63168;49.280;7.214;2023-02-01T05:45:09;8.53;;;2.60;;
74648;SDS011;63168;49.280;7.214;2023-02-01T05:47:35;7.15;;;2.65;;
74648;SDS011;63168;49.280;7.214;2023-02-01T05:50:01;7.80;;;2.40;;
74648;SDS011;63168;49.280;7.214;2023-02-01T05:52:26;6.53;;;2.50;;
74648;SDS011;63168;49.280;7.214;2023-02-01T05:54:52;6.53;;;2.58;;
74648;SDS011;63168;49.280;7.214;2023-02-01T05:57:19;8.77;;;2.70;;
74648;SDS011;63168;49.280;7.214;2023-02-01T05:59:44;6.07;;;2.50;;
74648;SDS011;63168;49.280;7.214;2023-02-01T06:02:10;8.75;;;2.97;;
74648;SDS011;63168;49.280;7.214;2023-02-01T06:04:36;7.63;;;2.73;;
74648;SDS011;63168;49.280;7.214;2023-02-01T06:07:01;7.47;;;2.80;;
74648;SDS011;63168;49.280;7.214;2023-02-01T06:09:27;7.13;;;2.38;;
74648;SDS011;63168;49.280;7.214;2023-02-01T06:11:53;8.50;;;2.23;;
74648;SDS011;63168;49.280;7.214;2023-02-01T06:14:20;9.27;;;2.60;;
74648;SDS011;63168;49.280;7.214;2023-02-01T06:16:45;6.30;;;2.28;;
74648;SDS011;63168;49.280;7.214;2023-02-01T06:19:11;6.55;;;2.25;;
74648;SDS011;63168;49.280;7.214;2023-02-01T06:21:37;7.13;;;2.45;;
74648;SDS011;63168;49.280;7.214;2023-02-01T06:24:02;7.17;;;2.53;;
74648;SDS011;63168;49.280;7.214;2023-02-01T06:26:28;7.43;;;2.30;;
74648;SDS011;63168;49.280;7.214;2023-02-01T06:28:54;7.28;;;2.83;;
74648;SDS011;63168;49.280;7.214;2023-02-01T06:31:22;6.43;;;2.33;;
74648;SDS011;63168;49.280;7.214;2023-02-01T06:33:48;8.35;;;2.53;;
74648;SDS011;63168;49.280;7.214;2023-02-01T06:36:14;6.80;;;2.55;;
74648;SDS011;63168;49.280;7.214;2023-02-01T06:38:41;7.82;;;2.10;;
74648;SDS011;63168;49.280;7.214;2023-02-01T06:41:06;4.90;;;2.10;;
74648;SDS011;63168;49.280;7.214;2023-02-01T06:43:32;7.32;;;2.35;;
74648;SDS011;63168;49.280;7.214;2023-02-01T06:46:01;5.80;;;2.30;;
74648;SDS011;63168;49.280;7.214;2023-02-01T06:48:29;6.30;;;2.20;;
74648;SDS011;63168;49.280;7.214;2023-02-01T06:50:55;6.20;;;2.08;;
74648;SDS011;63168;49.280;7.214;2023-02-01T06:53:20;6.53;;;2.17;;
74648;SDS011;63168;49.280;7.214;2023-02-01T06:55:51;4.60;;;1.90;;
74648;SDS011;63168;49.280;7.214;2023-02-01T06:58:17;5.45;;;2.00;;
74648;SDS011;63168;49.280;7.214;2023-02-01T07:00:42;7.07;;;2.10;;
74648;SDS011;63168;49.280;7.214;2023-02-01T07:03:07;4.53;;;1.70;;
74648;SDS011;63168;49.280;7.214;2023-02-01T07:05:34;6.50;;;2.10;;
74648;SDS011;63168;49.280;7.214;2023-02-01T07:07:59;6.65;;;2.20;;
74648;SDS011;63168;49.280;7.214;2023-02-01T07:10:25;5.63;;;2.40;;
74648;SDS011;63168;49.280;7.214;2023-02-01T07:12:50;5.40;;;2.10;;
74648;SDS011;63168;49.280;7.214;2023-02-01T07:15:16;5.57;;;2.30;;
74648;SDS011;63168;49.280;7.214;2023-02-01T07:17:41;7.27;;;2.17;;
74648;SDS011;63168;49.280;7.214;2023-02-01T07:20:07;5.50;;;2.00;;
74648;SDS011;63168;49.280;7.214;2023-02-01T07:22:35;5.28;;;1.98;;
74648;SDS011;63168;49.280;7.214;2023-02-01T07:25:00;5.88;;;1.90;;
74648;SDS011;63168;49.280;7.214;2023-02-01T07:27:25;5.43;;;1.70;;
74648;SDS011;63168;49.280;7.214;2023-02-01T07:29:51;6.47;;;2.10;;
74648;SDS011;63168;49.280;7.214;2023-02-01T07:32:17;4.57;;;1.73;;
74648;SDS011;63168;49.280;7.214;2023-02-01T07:34:43;5.03;;;1.90;;
74648;SDS011;63168;49.280;7.214;2023-02-01T07:37:08;4.82;;;1.60;;
74648;SDS011;63168;49.280;7.214;2023-02-01T07:39:35;5.13;;;2.20;;
74648;SDS011;63168;49.280;7.214;2023-02-01T07:42:00;5.33;;;1.83;;
74648;SDS011;63168;49.280;7.214;2023-02-01T07:44:26;5.55;;;2.00;;
74648;SDS011;63168;49.280;7.214;2023-02-01T07:46:52;5.73;;;1.97;;
74648;SDS011;63168;49.280;7.214;2023-02-01T07:49:17;4.67;;;1.90;;
74648;SDS011;63168;49.280;7.214;2023-02-01T07:51:43;6.13;;;1.75;;
74648;SDS011;63168;49.280;7.214;2023-02-01T07:54:08;4.37;;;1.63;;
74648;SDS011;63168;49.280;7.214;2023-02-01T07:56:35;3.87;;;1.60;;
74648;SDS011;63168;49.280;7.214;2023-02-01T07:59:00;5.72;;;1.88;;
74648;SDS011;63168;49.280;7.214;2023-02-01T08:01:27;5.10;;;1.70;;
74648;SDS011;63168;49.280;7.214;2023-02-01T08:03:54;4.65;;;1.70;;
74648;SDS011;63168;49.280;7.214;2023-02-01T08:06:21;4.30;;;2.10;;
74648;SDS011;63168;49.280;7.214;2023-02-01T08:08:48;5.45;;;1.98;;
74648;SDS011;63168;49.280;7.214;2023-02-01T08:11:17;5.32;;;2.10;;
74648;SDS011;63168;49.280;7.214;2023-02-01T08:13:44;3.65;;;1.48;;
74648;SDS011;63168;49.280;7.214;2023-02-01T08:16:11;3.27;;;1.43;;
74648;SDS011;63168;49.280;7.214;2023-02-01T08:18:38;3.75;;;1.60;;
74648;SDS011;63168;49.280;7.214;2023-02-01T08:21:04;4.70;;;1.90;;
74648;SDS011;63168;49.280;7.214;2023-02-01T08:23:30;5.00;;;1.92;;
74648;SDS011;63168;49.280;7.214;2023-02-01T08:26:03;5.10;;;1.85;;
74648;SDS011;63168;49.280;7.214;2023-02-01T08:28:29;4.93;;;1.63;;
74648;SDS011;63168;49.280;7.214;2023-02-01T08:30:56;4.80;;;1.85;;
74648;SDS011;63168;49.280;7.214;2023-02-01T08:33:21;4.35;;;1.77;;
74648;SDS011;63168;49.280;7.214;2023-02-01T08:35:47;4.88;;;1.42;;
74648;SDS011;63168;49.280;7.214;2023-02-01T08:38:12;3.87;;;1.57;;
74648;SDS011;63168;49.280;7.214;2023-02-01T08:40:38;3.60;;;1.23;;
74648;SDS011;63168;49.280;7.214;2023-02-01T08:43:03;3.15;;;1.40;;
74648;SDS011;63168;49.280;7.214;2023-02-01T08:45:29;4.93;;;1.90;;
74648;SDS011;63168;49.280;7.214;2023-02-01T08:47:56;4.28;;;1.90;;
74648;SDS011;63168;49.280;7.214;2023-02-01T08:50:22;3.63;;;1.70;;
74648;SDS011;63168;49.280;7.214;2023-02-01T08:52:48;4.32;;;1.60;;
74648;SDS011;63168;49.280;7.214;2023-02-01T08:55:14;3.55;;;1.50;;
74648;SDS011;63168;49.280;7.214;2023-02-01T08:57:40;3.30;;;1.30;;
74648;SDS011;63168;49.280;7.214;2023-02-01T09:00:07;3.95;;;1.48;;
74648;SDS011;63168;49.280;7.214;2023-02-01T09:02:35;4.30;;;1.45;;
74648;SDS011;63168;49.280;7.214;2023-02-01T09:05:02;4.03;;;1.48;;
74648;SDS011;63168;49.280;7.214;2023-02-01T09:07:29;3.95;;;1.75;;
74648;SDS011;63168;49.280;7.214;2023-02-01T09:09:54;3.60;;;1.30;;
74648;SDS011;63168;49.280;7.214;2023-02-01T09:12:21;3.10;;;1.45;;
74648;SDS011;63168;49.280;7.214;2023-02-01T09:14:47;3.90;;;1.50;;
74648;SDS011;63168;49.280;7.214;2023-02-01T09:17:13;5.30;;;1.40;;
74648;SDS011;63168;49.280;7.214;2023-02-01T09:19:38;3.67;;;1.40;;
74648;SDS011;63168;49.280;7.214;2023-02-01T09:22:05;2.83;;;1.30;;
74648;SDS011;63168;49.280;7.214;2023-02-01T09:24:30;3.75;;;1.30;;
74648;SDS011;63168;49.280;7.214;2023-02-01T09:26:56;4.60;;;1.50;;
74648;SDS011;63168;49.280;7.214;2023-02-01T09:29:21;3.63;;;1.60;;
74648;SDS011;63168;49.280;7.214;2023-02-01T09:31:46;3.53;;;1.43;;
74648;SDS011;63168;49.280;7.214;2023-02-01T09:34:12;4.00;;;1.33;;
74648;SDS011;63168;49.280;7.214;2023-02-01T09:36:37;3.47;;;1.52;;
74648;SDS011;63168;49.280;7.214;2023-02-01T09:39:04;4.27;;;1.50;;
74648;SDS011;63168;49.280;7.214;2023-02-01T09:41:32;3.38;;;1.55;;
74648;SDS011;63168;49.280;7.214;2023-02-01T09:44:08;3.85;;;1.50;;
74648;SDS011;63168;49.280;7.214;2023-02-01T09:46:43;3.80;;;1.50;;
74648;SDS011;63168;49.280;7.214;2023-02-01T09:49:11;2.50;;;1.10;;
74648;SDS011;63168;49.280;7.214;2023-02-01T09:51:41;3.45;;;1.48;;
74648;SDS011;63168;49.280;7.214;2023-02-01T09:54:13;3.20;;;1.40;;
74648;SDS011;63168;49.280;7.214;2023-02-01T09:56:42;4.13;;;1.42;;
74648;SDS011;63168;49.280;7.214;2023-02-01T09:59:15;2.92;;;1.30;;
74648;SDS011;63168;49.280;7.214;2023-02-01T10:01:51;3.80;;;1.35;;
74648;SDS011;63168;49.280;7.214;2023-02-01T10:04:16;3.60;;;1.38;;
74648;SDS011;63168;49.280;7.214;2023-02-01T10:06:46;3.08;;;1.35;;
74648;SDS011;63168;49.280;7.214;2023-02-01T10:09:25;3.40;;;1.52;;
74648;SDS011;63168;49.280;7.214;2023-02-01T10:12:12;3.53;;;1.25;;
74648;SDS011;63168;49.280;7.214;2023-02-01T10:14:59;2.95;;;1.20;;
74648;SDS011;63168;49.280;7.214;2023-02-01T10:17:39;3.25;;;1.38;;
74648;SDS011;63168;49.280;7.214;2023-02-01T10:20:16;2.55;;;1.15;;
74648;SDS011;63168;49.280;7.214;2023-02-01T10:22:51;3.28;;;1.20;;
74648;SDS011;63168;49.280;7.214;2023-02-01T10:25:27;3.13;;;1.13;;
74648;SDS011;63168;49.280;7.214;2023-02-01T10:27:58;3.63;;;1.33;;
74648;SDS011;63168;49.280;7.214;2023-02-01T10:30:26;3.22;;;1.20;;
74648;SDS011;63168;49.280;7.214;2023-02-01T10:32:59;2.50;;;1.13;;
74648;SDS011;63168;49.280;7.214;2023-02-01T10:35:37;3.17;;;1.10;;
74648;SDS011;63168;49.280;7.214;2023-02-01T10:38:03;2.35;;;1.00;;
74648;SDS011;63168;49.280;7.214;2023-02-01T10:40:39;3.40;;;1.30;;
74648;SDS011;63168;49.280;7.214;2023-02-01T10:43:05;3.05;;;1.05;;
74648;SDS011;63168;49.280;7.214;2023-02-01T10:45:32;2.47;;;1.03;;
74648;SDS011;63168;49.280;7.214;2023-02-01T10:47:58;2.60;;;1.10;;
74648;SDS011;63168;49.280;7.214;2023-02-01T10:50:29;3.83;;;1.30;;
74648;SDS011;63168;49.280;7.214;2023-02-01T10:53:01;3.08;;;1.20;;
74648;SDS011;63168;49.280;7.214;2023-02-01T10:55:33;2.15;;;1.05;;
74648;SDS011;63168;49.280;7.214;2023-02-01T10:58:04;2.85;;;1.30;;
74648;SDS011;63168;49.280;7.214;2023-02-01T11:00:41;3.22;;;1.20;;
74648;SDS011;63168;49.280;7.214;2023-02-01T11:03:20;3.75;;;1.70;;
74648;SDS011;63168;49.280;7.214;2023-02-01T11:05:55;2.78;;;1.00;;
74648;SDS011;63168;49.280;7.214;2023-02-01T11:08:21;2.85;;;1.08;;
74648;SDS011;63168;49.280;7.214;2023-02-01T11:10:47;3.25;;;1.10;;
74648;SDS011;63168;49.280;7.214;2023-02-01T11:13:23;2.75;;;1.13;;
74648;SDS011;63168;49.280;7.214;2023-02-01T11:15:55;2.65;;;1.10;;
74648;SDS011;63168;49.280;7.214;2023-02-01T11:18:26;2.13;;;1.10;;
74648;SDS011;63168;49.280;7.214;2023-02-01T11:20:54;3.90;;;1.30;;
74648;SDS011;63168;49.280;7.214;2023-02-01T11:23:21;3.40;;;1.30;;
74648;SDS011;63168;49.280;7.214;2023-02-01T11:25:49;3.25;;;1.00;;
74648;SDS011;63168;49.280;7.214;2023-02-01T11:28:17;3.30;;;1.02;;
74648;SDS011;63168;49.280;7.214;2023-02-01T11:30:47;3.55;;;1.20;;
74648;SDS011;63168;49.280;7.214;2023-02-01T11:33:13;2.40;;;1.02;;
74648;SDS011;63168;49.280;7.214;2023-02-01T11:35:41;3.03;;;1.20;;
74648;SDS011;63168;49.280;7.214;2023-02-01T11:38:12;2.35;;;0.90;;
74648;SDS011;63168;49.280;7.214;2023-02-01T11:40:44;2.88;;;1.20;;
74648;SDS011;63168;49.280;7.214;2023-02-01T11:43:13;2.77;;;1.00;;
74648;SDS011;63168;49.280;7.214;2023-02-01T11:45:41;3.13;;;1.10;;
74648;SDS011;63168;49.280;7.214;2023-02-01T11:48:21;2.70;;;1.13;;
74648;SDS011;63168;49.280;7.214;2023-02-01T11:50:50;2.55;;;0.90;;
74648;SDS011;63168;49.280;7.214;2023-02-01T11:53:27;2.47;;;1.10;;
74648;SDS011;63168;49.280;7.214;2023-02-01T11:56:05;1.92;;;0.90;;
74648;SDS011;63168;49.280;7.214;2023-02-01T11:58:55;2.50;;;1.00;;
74648;SDS011;63168;49.280;7.214;2023-02-01T12:01:40;2.97;;;1.10;;
74648;SDS011;63168;49.280;7.214;2023-02-01T12:04:37;3.67;;;1.15;;
74648;SDS011;63168;49.280;7.214;2023-02-01T12:07:14;2.25;;;0.90;;
74648;SDS011;63168;49.280;7.214;2023-02-01T12:09:47;2.50;;;1.10;;
74648;SDS011;63168;49.280;7.214;2023-02-01T12:12:22;2.47;;;1.13;;
74648;SDS011;63168;49.280;7.214;2023-02-01T12:15:02;1.80;;;0.70;;
74648;SDS011;63168;49.280;7.214;2023-02-01T12:17:52;2.83;;;1.00;;
74648;SDS011;63168;49.280;7.214;2023-02-01T12:20:36;2.90;;;1.10;;
74648;SDS011;63168;49.280;7.214;2023-02-01T12:23:25;2.53;;;1.00;;
74648;SDS011;63168;49.280;7.214;2023-02-01T12:26:05;2.30;;;0.95;;
74648;SDS011;63168;49.280;7.214;2023-02-01T12:28:46;2.45;;;0.90;;
74648;SDS011;63168;49.280;7.214;2023-02-01T12:31:33;1.73;;;0.77;;
74648;SDS011;63168;49.280;7.214;2023-02-01T12:34:21;2.05;;;0.98;;
74648;SDS011;63168;49.280;7.214;2023-02-01T12:36:55;2.33;;;1.00;;
74648;SDS011;63168;49.280;7.214;2023-02-01T12:39:30;3.22;;;1.10;;
74648;SDS011;63168;49.280;7.214;2023-02-01T12:41:58;2.88;;;0.90;;
74648;SDS011;63168;49.280;7.214;2023-02-01T12:44:37;3.17;;;1.17;;
74648;SDS011;63168;49.280;7.214;2023-02-01T12:47:10;2.60;;;1.00;;
74648;SDS011;63168;49.280;7.214;2023-02-01T12:49:44;2.05;;;0.90;;
74648;SDS011;63168;49.280;7.214;2023-02-01T12:52:15;2.03;;;0.80;;
74648;SDS011;63168;49.280;7.214;2023-02-01T12:54:46;2.30;;;0.90;;
74648;SDS011;63168;49.280;7.214;2023-02-01T12:57:16;2.05;;;0.85;;
74648;SDS011;63168;49.280;7.214;2023-02-01T12:59:47;2.35;;;0.85;;
74648;SDS011;63168;49.280;7.214;2023-02-01T13:02:19;2.55;;;1.08;;
74648;SDS011;63168;49.280;7.214;2023-02-01T13:04:53;1.67;;;0.80;;
74648;SDS011;63168;49.280;7.214;2023-02-01T13:07:27;1.97;;;0.80;;
74648;SDS011;63168;49.280;7.214;2023-02-01T13:09:58;2.15;;;1.02;;
74648;SDS011;63168;49.280;7.214;2023-02-01T13:12:30;1.92;;;0.90;;
74648;SDS011;63168;49.280;7.214;2023-02-01T13:15:02;1.67;;;0.73;;
74648;SDS011;63168;49.280;7.214;2023-02-01T13:17:34;2.10;;;0.80;;
74648;SDS011;63168;49.280;7.214;2023-02-01T13:20:05;1.87;;;0.80;;
74648;SDS011;63168;49.280;7.214;2023-02-01T13:22:38;1.90;;;1.02;;
74648;SDS011;63168;49.280;7.214;2023-02-01T13:25:11;2.10;;;0.93;;
74648;SDS011;63168;49.280;7.214;2023-02-01T13:27:38;2.08;;;0.90;;
74648;SDS011;63168;49.280;7.214;2023-02-01T13:30:05;2.00;;;0.82;;
74648;SDS011;63168;49.280;7.214;2023-02-01T13:32:43;2.00;;;0.90;;
74648;SDS011;63168;49.280;7.214;2023-02-01T13:35:45;2.33;;;0.85;;
74648;SDS011;63168;49.280;7.214;2023-02-01T13:41:15;2.13;;;0.90;;
74648;SDS011;63168;49.280;7.214;2023-02-01T13:43:52;2.30;;;0.90;;
74648;SDS011;63168;49.280;7.214;2023-02-01T13:46:20;2.13;;;0.80;;
74648;SDS011;63168;49.280;7.214;2023-02-01T13:48:46;1.70;;;0.90;;
74648;SDS011;63168;49.280;7.214;2023-02-01T13:51:16;1.77;;;0.70;;
74648;SDS011;63168;49.280;7.214;2023-02-01T13:53:53;2.25;;;0.93;;
74648;SDS011;63168;49.280;7.214;2023-02-01T13:56:19;1.20;;;0.73;;
74648;SDS011;63168;49.280;7.214;2023-02-01T13:58:49;1.45;;;0.88;;
74648;SDS011;63168;49.280;7.214;2023-02-01T14:04:01;2.40;;;0.82;;
74648;SDS011;63168;49.280;7.214;2023-02-01T14:06:36;2.00;;;0.80;;
74648;SDS011;63168;49.280;7.214;2023-02-01T14:15:16;2.17;;;0.88;;
74648;SDS011;63168;49.280;7.214;2023-02-01T14:17:46;1.42;;;0.70;;
74648;SDS011;63168;49.280;7.214;2023-02-01T14:20:36;1.73;;;0.90;;
74648;SDS011;63168;49.280;7.214;2023-02-01T14:23:12;1.65;;;1.08;;
74648;SDS011;63168;49.280;7.214;2023-02-01T14:25:40;1.55;;;0.80;;
74648;SDS011;63168;49.280;7.214;2023-02-01T14:28:10;1.92;;;0.70;;
74648;SDS011;63168;49.280;7.214;2023-02-01T14:30:37;2.00;;;1.00;;
74648;SDS011;63168;49.280;7.214;2023-02-01T14:33:10;1.80;;;0.70;;
74648;SDS011;63168;49.280;7.214;2023-02-01T14:35:42;1.40;;;0.60;;
74648;SDS011;63168;49.280;7.214;2023-02-01T14:38:26;1.40;;;0.70;;
74648;SDS011;63168;49.280;7.214;2023-02-01T14:40:51;1.83;;;0.70;;
74648;SDS011;63168;49.280;7.214;2023-02-01T14:43:17;1.52;;;0.90;;
74648;SDS011;63168;49.280;7.214;2023-02-01T14:49:29;2.67;;;0.82;;
74648;SDS011;63168;49.280;7.214;2023-02-01T14:51:56;2.75;;;1.00;;
74648;SDS011;63168;49.280;7.214;2023-02-01T14:54:21;2.42;;;0.90;;
74648;SDS011;63168;49.280;7.214;2023-02-01T14:56:48;1.88;;;0.75;;
74648;SDS011;63168;49.280;7.214;2023-02-01T14:59:15;1.30;;;0.70;;
74648;SDS011;63168;49.280;7.214;2023-02-01T15:01:47;1.98;;;0.80;;
74648;SDS011;63168;49.280;7.214;2023-02-01T15:04:16;1.20;;;0.68;;
74648;SDS011;63168;49.280;7.214;2023-02-01T15:06:47;1.90;;;0.85;;
74648;SDS011;63168;49.280;7.214;2023-02-01T15:09:15;2.00;;;0.90;;
74648;SDS011;63168;49.280;7.214;2023-02-01T15:11:54;1.47;;;0.80;;
74648;SDS011;63168;49.280;7.214;2023-02-01T15:14:22;2.30;;;0.85;;
74648;SDS011;63168;49.280;7.214;2023-02-01T15:16:48;2.17;;;0.90;;
74648;SDS011;63168;49.280;7.214;2023-02-01T15:19:18;1.60;;;0.70;;
74648;SDS011;63168;49.280;7.214;2023-02-01T15:21:47;1.58;;;0.80;;
74648;SDS011;63168;49.280;7.214;2023-02-01T15:24:14;1.77;;;0.70;;